createdAt,value
2023-01-08T00:01:08.431Z,9.77
2023-01-08T00:03:35.723Z,9.74
2023-01-08T00:06:04.353Z,9.72
2023-01-08T00:08:32.052Z,9.72
2023-01-08T00:10:58.753Z,9.71
2023-01-08T00:13:25.324Z,9.69
2023-01-08T00:15:52.478Z,9.69
2023-01-08T00:18:19.093Z,9.66
2023-01-08T00:20:46.200Z,9.66
2023-01-08T00:23:19.920Z,9.63
2023-01-08T00:25:46.774Z,9.62
2023-01-08T00:28:14.969Z,9.63
2023-01-08T00:30:42.243Z,9.63
2023-01-08T00:33:09.492Z,9.65
2023-01-08T00:35:37.988Z,9.65
2023-01-08T00:38:04.502Z,9.70
2023-01-08T00:40:31.220Z,9.70
2023-01-08T00:42:57.696Z,9.68
2023-01-08T00:45:24.234Z,9.68
2023-01-08T00:47:50.770Z,9.68
2023-01-08T00:50:17.366Z,9.69
2023-01-08T00:52:43.876Z,9.69
2023-01-08T00:55:10.328Z,9.69
2023-01-08T00:57:39.218Z,9.66
2023-01-08T01:00:09.832Z,9.68
2023-01-08T01:02:37.060Z,9.69
2023-01-08T01:05:04.465Z,9.69
2023-01-08T01:07:31.135Z,9.69
2023-01-08T01:09:57.643Z,9.71
2023-01-08T01:12:24.091Z,9.71
2023-01-08T01:14:50.749Z,9.75
2023-01-08T01:17:17.206Z,9.77
2023-01-08T01:19:43.993Z,9.76
2023-01-08T01:22:10.565Z,9.74
2023-01-08T01:24:36.967Z,9.74
2023-01-08T01:27:03.464Z,9.73
2023-01-08T01:29:29.976Z,9.70
2023-01-08T01:31:56.412Z,9.73
2023-01-08T01:34:22.918Z,9.75
2023-01-08T01:36:49.373Z,9.78
2023-01-08T01:39:15.896Z,9.77
2023-01-08T01:41:44.835Z,9.77
2023-01-08T01:44:35.537Z,9.75
2023-01-08T01:47:24.290Z,9.74
2023-01-08T01:50:06.944Z,9.75
2023-01-08T01:52:37.336Z,9.75
2023-01-08T01:55:05.968Z,9.74
2023-01-08T01:57:33.154Z,9.76
2023-01-08T02:00:04.512Z,9.74
2023-01-08T02:02:32.603Z,9.71
2023-01-08T02:05:01.259Z,9.69
2023-01-08T02:07:36.213Z,9.67
2023-01-08T02:10:22.414Z,9.64
2023-01-08T02:12:57.525Z,9.62
2023-01-08T02:15:39.199Z,9.60
2023-01-08T02:18:10.574Z,9.59
2023-01-08T02:20:50.867Z,9.58
2023-01-08T02:23:20.299Z,9.56
2023-01-08T02:26:12.473Z,9.55
2023-01-08T02:28:47.224Z,9.53
2023-01-08T02:31:16.129Z,9.52
2023-01-08T02:33:42.611Z,9.51
2023-01-08T02:36:23.976Z,9.50
2023-01-08T02:38:57.297Z,9.49
2023-01-08T02:41:29.638Z,9.48
2023-01-08T02:43:58.429Z,9.47
2023-01-08T02:46:32.971Z,9.47
2023-01-08T02:49:07.353Z,9.46
2023-01-08T02:51:40.182Z,9.48
2023-01-08T02:54:12.462Z,9.50
2023-01-08T02:56:44.613Z,9.50
2023-01-08T02:59:14.348Z,9.49
2023-01-08T03:01:42.084Z,9.48
2023-01-08T03:04:15.218Z,9.47
2023-01-08T03:06:42.850Z,9.46
2023-01-08T03:09:10.379Z,9.47
2023-01-08T03:11:46.301Z,9.47
2023-01-08T03:14:26.326Z,9.48
2023-01-08T03:17:01.115Z,9.49
2023-01-08T03:19:42.036Z,9.48
2023-01-08T03:22:15.461Z,9.49
2023-01-08T03:24:45.507Z,9.48
2023-01-08T03:27:16.966Z,9.46
2023-01-08T03:29:45.669Z,9.44
2023-01-08T03:32:15.198Z,9.44
2023-01-08T03:34:45.569Z,9.46
2023-01-08T03:37:14.334Z,9.46
2023-01-08T03:39:46.196Z,9.45
2023-01-08T03:42:16.619Z,9.46
2023-01-08T03:44:43.334Z,9.44
2023-01-08T03:47:11.076Z,9.44
2023-01-08T03:49:40.692Z,9.46
2023-01-08T03:52:07.333Z,9.45
2023-01-08T03:54:36.089Z,9.44
2023-01-08T03:57:02.608Z,9.45
2023-01-08T03:59:29.289Z,9.44
2023-01-08T04:01:55.898Z,9.44
2023-01-08T04:04:22.372Z,9.42
2023-01-08T04:06:48.889Z,9.41
2023-01-08T04:09:15.369Z,9.40
2023-01-08T04:11:41.902Z,9.41
2023-01-08T04:14:08.502Z,9.40
2023-01-08T04:16:34.916Z,9.39
2023-01-08T04:19:01.659Z,9.38
2023-01-08T04:21:28.268Z,9.37
2023-01-08T04:23:55.250Z,9.35
2023-01-08T04:26:21.697Z,9.34
2023-01-08T04:28:48.189Z,9.34
2023-01-08T04:31:14.736Z,9.33
2023-01-08T04:33:41.274Z,9.32
2023-01-08T04:36:08.038Z,9.31
2023-01-08T04:38:34.527Z,9.29
2023-01-08T04:41:02.544Z,9.28
2023-01-08T04:43:30.713Z,9.27
2023-01-08T04:46:01.548Z,9.26
2023-01-08T04:48:30.034Z,9.24
2023-01-08T04:50:58.910Z,9.24
2023-01-08T04:53:25.519Z,9.23
2023-01-08T04:55:52.577Z,9.21
2023-01-08T04:58:19.028Z,9.21
2023-01-08T05:00:45.479Z,9.18
2023-01-08T05:03:12.017Z,9.18
2023-01-08T05:05:38.878Z,9.18
2023-01-08T05:08:05.411Z,9.18
2023-01-08T05:10:32.103Z,9.19
2023-01-08T05:13:01.846Z,9.18
2023-01-08T05:15:28.580Z,9.17
2023-01-08T05:18:03.278Z,9.17
2023-01-08T05:20:30.086Z,9.17
2023-01-08T05:22:58.398Z,9.17
2023-01-08T05:25:25.034Z,9.18
2023-01-08T05:27:52.858Z,9.17
2023-01-08T05:30:19.795Z,9.18
2023-01-08T05:32:46.199Z,9.18
2023-01-08T05:35:12.757Z,9.17
2023-01-08T05:37:39.349Z,9.16
2023-01-08T05:40:06.583Z,9.16
2023-01-08T05:42:36.791Z,9.16
2023-01-08T05:45:07.881Z,9.17
2023-01-08T05:47:35.508Z,9.17
2023-01-08T05:50:02.049Z,9.18
2023-01-08T05:52:29.305Z,9.15
2023-01-08T05:54:55.843Z,9.16
2023-01-08T05:57:22.327Z,9.16
2023-01-08T05:59:48.924Z,9.16
2023-01-08T06:02:15.375Z,9.13
2023-01-08T06:04:41.882Z,9.12
2023-01-08T06:07:08.492Z,9.10
2023-01-08T06:09:34.973Z,9.07
2023-01-08T06:12:01.431Z,9.08
2023-01-08T06:14:27.956Z,9.06
2023-01-08T06:16:54.458Z,9.06
2023-01-08T06:19:20.936Z,9.05
2023-01-08T06:21:47.347Z,9.06
2023-01-08T06:24:13.839Z,9.07
2023-01-08T06:26:40.288Z,9.09
2023-01-08T06:29:06.774Z,9.07
2023-01-08T06:31:33.333Z,9.09
2023-01-08T06:33:59.823Z,9.07
2023-01-08T06:36:26.268Z,9.07
2023-01-08T06:38:53.231Z,9.09
2023-01-08T06:41:19.641Z,9.10
2023-01-08T06:43:46.057Z,9.10
2023-01-08T06:46:12.692Z,9.11
2023-01-08T06:48:39.203Z,9.10
2023-01-08T06:51:06.384Z,8.97
2023-01-08T06:53:33.092Z,8.71
2023-01-08T06:55:59.539Z,8.62
2023-01-08T06:58:27.766Z,8.47
2023-01-08T07:00:54.225Z,8.37
2023-01-08T07:03:20.855Z,8.29
2023-01-08T07:05:47.519Z,8.14
2023-01-08T07:08:15.359Z,8.09
2023-01-08T07:10:42.728Z,8.06
2023-01-08T07:13:09.632Z,8.08
2023-01-08T07:15:37.325Z,8.14
2023-01-08T07:18:09.522Z,8.11
2023-01-08T07:20:36.677Z,8.09
2023-01-08T07:23:09.592Z,8.13
2023-01-08T07:25:36.382Z,8.15
2023-01-08T07:28:03.007Z,8.19
2023-01-08T07:30:31.607Z,8.20
2023-01-08T07:33:01.841Z,8.20
2023-01-08T07:35:28.750Z,8.19
2023-01-08T07:37:55.438Z,8.17
2023-01-08T07:40:22.504Z,8.17
2023-01-08T07:42:49.172Z,8.17
2023-01-08T07:45:15.653Z,8.17
2023-01-08T07:47:42.666Z,8.15
2023-01-08T07:50:09.900Z,8.16
2023-01-08T07:52:36.334Z,8.14
2023-01-08T07:55:02.968Z,8.11
2023-01-08T07:57:30.435Z,8.11
2023-01-08T07:59:57.194Z,8.11
2023-01-08T08:02:23.714Z,8.11
2023-01-08T08:04:50.427Z,8.12
2023-01-08T08:07:16.824Z,8.12
2023-01-08T08:09:43.221Z,8.10
2023-01-08T08:12:09.660Z,8.09
2023-01-08T08:14:36.239Z,8.12
2023-01-08T08:17:03.758Z,8.11
2023-01-08T08:19:30.241Z,8.10
2023-01-08T08:21:56.703Z,8.08
2023-01-08T08:24:23.170Z,8.05
2023-01-08T08:26:51.078Z,8.03
2023-01-08T08:29:17.535Z,8.00
2023-01-08T08:31:44.034Z,8.01
2023-01-08T08:34:10.455Z,8.02
2023-01-08T08:36:36.871Z,8.04
2023-01-08T08:39:04.201Z,8.04
2023-01-08T08:41:30.664Z,8.07
2023-01-08T08:43:57.089Z,8.04
2023-01-08T08:46:25.319Z,8.07
2023-01-08T08:48:51.857Z,8.06
2023-01-08T08:51:18.308Z,8.05
2023-01-08T08:53:44.726Z,8.02
2023-01-08T08:56:11.117Z,8.00
2023-01-08T08:58:37.652Z,7.96
2023-01-08T09:01:04.723Z,7.95
2023-01-08T09:03:31.254Z,7.94
2023-01-08T09:05:59.758Z,7.91
2023-01-08T09:08:26.788Z,7.91
2023-01-08T09:10:53.359Z,7.91
2023-01-08T09:13:20.416Z,7.88
2023-01-08T09:15:46.953Z,7.88
2023-01-08T09:18:15.827Z,7.89
2023-01-08T09:20:42.420Z,7.90
2023-01-08T09:23:09.467Z,7.93
2023-01-08T09:25:35.985Z,7.94
2023-01-08T09:28:08.090Z,7.97
2023-01-08T09:30:34.869Z,7.96
2023-01-08T09:33:03.300Z,7.97
2023-01-08T09:35:30.782Z,7.96
2023-01-08T09:37:57.591Z,7.99
2023-01-08T09:40:56.909Z,8.01
2023-01-08T09:43:26.448Z,8.04
2023-01-08T09:45:56.690Z,8.08
2023-01-08T09:48:30.032Z,8.13
2023-01-08T09:50:57.785Z,8.21
2023-01-08T09:53:24.529Z,8.30
2023-01-08T09:56:10.618Z,8.36
2023-01-08T09:58:40.625Z,8.42
2023-01-08T10:01:11.360Z,8.47
2023-01-08T10:03:47.253Z,8.52
2023-01-08T10:06:15.892Z,8.58
2023-01-08T10:08:42.689Z,8.61
2023-01-08T10:11:11.009Z,8.62
2023-01-08T10:13:40.598Z,8.61
2023-01-08T10:16:10.281Z,8.64
2023-01-08T10:18:37.475Z,8.66
2023-01-08T10:21:04.289Z,8.69
2023-01-08T10:23:30.735Z,8.68
2023-01-08T10:26:00.173Z,8.73
2023-01-08T10:28:32.160Z,8.82
2023-01-08T10:31:04.517Z,8.89
2023-01-08T10:33:42.631Z,8.99
2023-01-08T10:36:13.693Z,9.00
2023-01-08T10:38:48.154Z,9.03
2023-01-08T10:41:15.418Z,9.07
2023-01-08T10:43:41.835Z,9.12
2023-01-08T10:46:36.453Z,9.10
2023-01-08T10:49:05.122Z,9.11
2023-01-08T10:51:33.215Z,9.15
2023-01-08T10:54:12.256Z,9.16
2023-01-08T10:56:43.833Z,9.19
2023-01-08T10:59:23.833Z,9.21
2023-01-08T11:01:53.175Z,9.24
2023-01-08T11:04:35.189Z,9.28
2023-01-08T11:07:05.490Z,9.32
2023-01-08T11:09:41.874Z,9.30
2023-01-08T11:12:33.444Z,9.33
2023-01-08T11:15:00.660Z,9.35
2023-01-08T11:17:28.117Z,9.41
2023-01-08T11:19:55.951Z,9.47
2023-01-08T11:22:25.280Z,9.53
2023-01-08T11:24:53.430Z,9.60
2023-01-08T11:27:38.807Z,9.65
2023-01-08T11:30:19.416Z,9.68
2023-01-08T11:32:57.740Z,9.67
2023-01-08T11:35:31.330Z,9.70
2023-01-08T11:38:00.912Z,9.70
2023-01-08T11:40:48.941Z,9.67
2023-01-08T11:43:30.681Z,9.64
2023-01-08T11:46:31.634Z,9.63
2023-01-08T11:49:01.052Z,9.68
2023-01-08T11:51:40.008Z,9.69
2023-01-08T11:54:24.587Z,9.73
2023-01-08T11:57:21.632Z,9.75
2023-01-08T12:00:14.420Z,9.83
2023-01-08T12:02:53.005Z,9.80
2023-01-08T12:05:46.539Z,9.80
2023-01-08T12:08:28.538Z,9.79
2023-01-08T12:11:14.070Z,9.83
2023-01-08T12:13:46.923Z,9.82
2023-01-08T12:16:34.441Z,9.82
2023-01-08T12:19:22.796Z,9.83
2023-01-08T12:22:02.807Z,9.85
2023-01-08T12:24:59.007Z,9.91
2023-01-08T12:27:56.342Z,9.66
2023-01-08T12:30:51.583Z,9.44
2023-01-08T12:33:18.042Z,9.41
2023-01-08T12:35:51.932Z,9.41
2023-01-08T12:38:28.627Z,9.38
2023-01-08T12:40:58.836Z,9.38
2023-01-08T12:43:34.969Z,9.38
2023-01-08T12:46:03.372Z,9.38
2023-01-08T12:48:36.654Z,9.39
2023-01-08T12:51:38.498Z,9.42
2023-01-08T12:54:31.895Z,9.53
2023-01-08T12:57:12.262Z,9.66
2023-01-08T12:59:50.922Z,9.79
2023-01-08T13:02:37.192Z,9.84
2023-01-08T13:05:30.739Z,9.92
2023-01-08T13:08:32.519Z,10.01
2023-01-08T13:10:59.317Z,10.01
2023-01-08T13:13:33.302Z,10.06
2023-01-08T13:16:29.616Z,10.01
2023-01-08T13:18:58.603Z,9.99
2023-01-08T13:21:37.784Z,10.05
2023-01-08T13:24:26.737Z,10.05
2023-01-08T13:26:53.852Z,10.03
2023-01-08T13:29:38.677Z,10.01
2023-01-08T13:32:23.936Z,10.01
2023-01-08T13:35:26.885Z,9.97
2023-01-08T13:38:08.265Z,-145.05
2023-01-08T13:40:56.392Z,-145.05
2023-01-08T13:43:51.089Z,-145.05
2023-01-08T13:46:20.066Z,-145.05
2023-01-08T13:48:59.923Z,-145.05
2023-01-08T13:51:30.708Z,-145.05
2023-01-08T13:54:05.101Z,-145.05
2023-01-08T20:53:44.333Z,10.03
2023-01-08T20:56:13.323Z,9.25
2023-01-08T20:58:43.156Z,8.96
2023-01-08T21:01:11.241Z,8.80
2023-01-08T21:03:38.969Z,8.73
2023-01-08T21:06:11.453Z,8.71
2023-01-08T21:08:39.907Z,8.71
2023-01-08T21:11:07.513Z,8.73
2023-01-08T21:13:34.661Z,8.76
2023-01-08T21:16:03.720Z,8.74
2023-01-08T21:18:30.425Z,8.76
2023-01-08T21:21:01.618Z,8.80
2023-01-08T21:23:29.263Z,8.80
2023-01-08T21:26:00.805Z,8.79
2023-01-08T21:28:28.043Z,8.77
2023-01-08T21:30:54.734Z,8.77
2023-01-08T21:33:21.850Z,8.78
2023-01-08T21:35:48.570Z,8.76
2023-01-08T21:38:15.051Z,8.78
2023-01-08T21:40:41.474Z,8.78
2023-01-08T21:43:29.171Z,8.84
2023-01-08T21:46:01.127Z,8.81
2023-01-08T21:48:28.922Z,8.82
2023-01-08T21:50:55.870Z,8.82
2023-01-08T21:53:31.304Z,8.85
2023-01-08T21:56:06.900Z,8.84
2023-01-08T21:58:33.380Z,8.87
2023-01-08T22:00:59.871Z,8.86
2023-01-08T22:03:26.419Z,8.86
2023-01-08T22:06:05.039Z,8.88
2023-01-08T22:08:32.247Z,8.88
2023-01-08T22:10:59.419Z,8.89
2023-01-08T22:13:26.959Z,8.88
2023-01-08T22:16:13.465Z,8.90
2023-01-08T22:18:40.007Z,8.91
2023-01-08T22:21:11.890Z,8.87
2023-01-08T22:23:38.458Z,8.89
2023-01-08T22:26:06.531Z,8.87
2023-01-08T22:28:33.481Z,8.89
2023-01-08T22:31:04.133Z,8.89
2023-01-08T22:33:30.526Z,8.89
2023-01-08T22:35:57.323Z,8.88
2023-01-08T22:38:23.946Z,8.86
2023-01-08T22:40:50.391Z,8.83
2023-01-08T22:43:16.797Z,8.82
2023-01-08T22:45:43.275Z,8.80
2023-01-08T22:48:09.790Z,8.75
2023-01-08T22:50:36.184Z,8.71
2023-01-08T22:53:02.612Z,8.68
2023-01-08T22:55:29.141Z,8.65
2023-01-08T22:57:55.631Z,8.61
2023-01-08T23:00:22.229Z,8.58
2023-01-08T23:02:48.721Z,8.56
2023-01-08T23:05:15.264Z,8.54
2023-01-08T23:07:41.786Z,8.52
2023-01-08T23:10:09.591Z,8.50
2023-01-08T23:12:36.110Z,8.48
2023-01-08T23:15:04.368Z,8.47
2023-01-08T23:17:32.386Z,8.44
2023-01-08T23:20:00.123Z,8.44
2023-01-08T23:22:26.568Z,8.43
2023-01-08T23:24:53.007Z,8.41
2023-01-08T23:27:19.428Z,8.38
2023-01-08T23:29:45.858Z,8.36
2023-01-08T23:32:12.271Z,8.35
2023-01-08T23:34:38.771Z,8.33
2023-01-08T23:37:05.233Z,8.33
2023-01-08T23:39:31.692Z,8.34
2023-01-08T23:41:58.198Z,8.31
2023-01-08T23:44:24.644Z,8.29
2023-01-08T23:46:51.062Z,8.28
2023-01-08T23:49:17.595Z,8.32
2023-01-08T23:51:44.109Z,8.31
2023-01-08T23:54:11.743Z,8.29
2023-01-08T23:56:38.725Z,8.31
2023-01-08T23:59:05.560Z,8.30
